Aeroporto :
LOGIN :

Iscrizione | Disclaimer

   EN    FR    IT 

 










Sommario :    VFR   VFR Marginale   IFR   IFR Intensivo   IFR Molto Intensivo
Visibilità : 
Base nubi : 
>= 8 km
>= 3000ft
5 / 8 km
1000 / 3000 ft
1500m / 5 km
500 / 1000 ft
800 / 1500m
200 / 500 ft
< 800m
< 200 ft
Simboli :   Temporali  Nebbia  Neve Forte  Precipitazioni Forti  Vento > 20 kt
SIGMETs :   Varie  Temporali  Ghiacco  Turbolenza  Onda orograficha  Ceneri Vulcaniche







- Altitudine del aeroporto : 245 ft
- Codice IATA : BIQ
- Carte del aeroporto


LFBZ - Biarritz

ULTIMO METAR :
  • 191500Z AUTO 33005KT CAVOK 19/12 Q1021 NOSIG

METARs OBSOLETI :
  • 191430Z AUTO 33003KT 280V010 CAVOK 19/12 Q1021 NOSIG
  • 191400Z AUTO 34005KT 290V020 CAVOK 19/12 Q1021 NOSIG
  • 191330Z AUTO 34004KT 310V030 CAVOK 19/12 Q1021 NOSIG
  • 191300Z AUTO 36004KT 310V040 CAVOK 19/12 Q1021 NOSIG
  • 191230Z AUTO 34004KT 260V030 CAVOK 18/12 Q1021 NOSIG

TAF TAF LFBZ
Valido dal 19 a 12 ore il 20 a 12 ore UTC


191100Z 1912/2012 30005KT CAVOK
PROB30
TEMPO 2002/2006 3000 BR BKN004
Nessun NOTAM noto per questo aeroporto.
1 SIGMET conosciuto per la FIR Bordeaux (LFBB) :
 
Turbolenza severa
LFBB SIGMET 3 VALID 191300/191700 LFPW
LFBB BORDEAUX FIR/UIR SEV TURB FCST WI N4415 E00245 - N4230 E00230 - N4330 E00045 - N4415 E00245 SFC/FL060 STNR NC=



MetMap, La meteo Aeronautica in un colpo d'occhio ! - Copyright ORBIFLY Dicembre 2007 - Disclaimer

ORBIFLY MET'MAP TEAM :

Programmazione e sviluppo : Alexandra Zaïnal
Concezione e sviluppo : Baudouin d'Aumeries
Co-Programmazione e sviluppo : Marc-Olivier Méhu
Supporto tecnico e logistico : Manuel Goepfert
Aiuto per la traduzione : Arnaldo La Scala

Contatto : metmap@orbifly.com




FONTI E CREDITI :

   NOAA